Terminal Aerodrome Forecast
Issued by NWS Wilmington, OH

Home | Current Version | Previous Version | Text Only | Print | Product List | Glossary On
Versions: 1 2 3 4 5 6 7 8 9 10 11 12 13 14 15 16 17 18 19 20 21 22 23 24 25 26 27 28
488
FTUS41 KILN 261854 AAB
TAFCMH
TAF AMD
KCMH 261854Z 2619/2718 27010KT P6SM OVC020
     FM262000 28012G18KT P6SM FEW020 SCT100 OVC140
     FM270100 24005KT P6SM SKC
     FM271500 24014G24KT P6SM SKC=

USA.gov is the U.S. government's official web portal to all federal, state and local government web resources and services.